createdAt,value
2022-11-06T00:01:48.802Z,25.55
2022-11-06T00:06:50.439Z,23.25
2022-11-06T00:11:52.958Z,24.25
2022-11-06T00:16:51.646Z,24.63
2022-11-06T00:21:50.517Z,25.08
2022-11-06T00:26:54.377Z,26.13
2022-11-06T00:31:53.569Z,26.83
2022-11-06T00:36:52.368Z,24.50
2022-11-06T00:41:52.526Z,27.00
2022-11-06T00:46:51.350Z,28.92
2022-11-06T00:51:50.115Z,27.67
2022-11-06T00:56:48.889Z,27.00
2022-11-06T01:01:49.155Z,27.10
2022-11-06T01:06:50.810Z,25.92
2022-11-06T01:12:12.405Z,23.17
2022-11-06T01:17:13.386Z,27.60
2022-11-06T01:22:12.169Z,24.83
2022-11-06T01:27:27.492Z,25.98
2022-11-06T01:32:27.955Z,27.67
2022-11-06T01:37:26.795Z,27.05
2022-11-06T01:42:25.692Z,29.63
2022-11-06T01:47:27.835Z,28.45
2022-11-06T01:52:29.339Z,30.10
2022-11-06T01:57:28.244Z,30.10
2022-11-06T02:02:28.767Z,31.60
2022-11-06T02:07:28.018Z,31.98
2022-11-06T02:12:40.822Z,29.92
2022-11-06T02:17:58.334Z,29.42
2022-11-06T02:23:32.937Z,31.60
2022-11-06T02:28:36.738Z,31.90
2022-11-06T02:33:39.604Z,30.65
2022-11-06T02:38:42.048Z,31.17
2022-11-06T02:43:46.598Z,33.08
2022-11-06T02:48:50.879Z,34.22
2022-11-06T02:53:50.555Z,33.65
2022-11-06T02:58:54.813Z,34.10
2022-11-06T03:03:57.104Z,32.00
2022-11-06T03:09:00.269Z,31.53
2022-11-06T03:14:10.547Z,30.58
2022-11-06T03:19:19.908Z,31.60
2022-11-06T03:24:31.190Z,33.03
2022-11-06T03:29:40.653Z,31.02
2022-11-06T03:34:44.168Z,32.92
2022-11-06T03:39:49.634Z,30.42
2022-11-06T03:44:53.631Z,33.13
2022-11-06T03:49:59.060Z,32.60
2022-11-06T03:55:01.686Z,32.88
2022-11-06T04:00:05.888Z,33.47
2022-11-06T04:05:15.953Z,34.55
2022-11-06T04:10:32.558Z,32.55
2022-11-06T04:15:37.874Z,34.42
2022-11-06T04:21:00.159Z,34.28
2022-11-06T04:26:23.404Z,35.40
2022-11-06T04:36:41.060Z,35.72
2022-11-06T04:41:46.635Z,34.42
2022-11-06T04:46:52.329Z,35.38
2022-11-06T04:51:51.293Z,35.67
2022-11-06T04:56:51.446Z,33.65
2022-11-06T05:01:52.285Z,32.85
2022-11-06T05:06:51.128Z,32.90
2022-11-06T05:11:50.076Z,34.50
2022-11-06T05:16:48.878Z,32.55
2022-11-06T05:22:06.420Z,33.72
2022-11-06T05:27:05.479Z,33.00
2022-11-06T05:32:16.050Z,32.95
2022-11-06T05:37:16.182Z,32.25
2022-11-06T05:42:15.008Z,30.52
2022-11-06T05:47:13.830Z,30.17
2022-11-06T05:52:12.635Z,29.90
2022-11-06T05:57:13.005Z,30.42
2022-11-06T06:02:12.309Z,28.98
2022-11-06T06:07:11.535Z,31.00
2022-11-06T06:12:14.422Z,28.13
2022-11-06T06:17:13.427Z,27.80
2022-11-06T06:22:12.765Z,31.00
2022-11-06T06:27:13.299Z,25.98
2022-11-06T06:32:12.110Z,26.50
2022-11-06T06:37:10.879Z,28.85
2022-11-06T06:42:09.778Z,29.20
2022-11-06T06:47:09.974Z,28.38
2022-11-06T06:52:11.348Z,27.25
2022-11-06T06:57:13.581Z,26.95
2022-11-06T07:02:14.608Z,27.63
2022-11-06T07:07:14.240Z,25.58
2022-11-06T07:12:13.555Z,24.90
2022-11-06T07:17:13.894Z,25.73
2022-11-06T07:22:12.790Z,27.70
2022-11-06T07:27:11.620Z,26.27
2022-11-06T07:32:10.489Z,25.58
2022-11-06T07:37:10.711Z,26.83
2022-11-06T07:42:09.552Z,24.17
2022-11-06T07:47:09.261Z,14.98
2022-11-06T07:52:08.016Z,19.42
2022-11-06T07:57:08.149Z,21.73
2022-11-06T08:02:07.142Z,16.08
2022-11-06T08:07:06.526Z,15.70
2022-11-06T08:12:05.686Z,13.38
2022-11-06T08:17:05.815Z,9.80
2022-11-06T08:22:04.641Z,16.55
2022-11-06T08:27:04.004Z,17.88
2022-11-06T08:32:05.413Z,17.02
2022-11-06T08:37:04.383Z,15.88
2022-11-06T08:42:05.279Z,16.77
2022-11-06T08:47:05.878Z,15.50
2022-11-06T08:52:05.709Z,15.70
2022-11-06T08:57:04.617Z,14.73
2022-11-06T09:02:03.544Z,17.10
2022-11-06T09:07:03.870Z,15.45
2022-11-06T09:12:05.234Z,13.23
2022-11-06T09:17:04.102Z,13.93
2022-11-06T09:22:06.952Z,12.23
2022-11-06T09:27:09.796Z,14.40
2022-11-06T09:32:10.062Z,11.93
2022-11-06T09:37:11.457Z,11.68
2022-11-06T09:42:20.775Z,13.05
2022-11-06T09:47:26.458Z,13.20
2022-11-06T09:52:34.591Z,10.98
2022-11-06T09:57:41.230Z,10.73
2022-11-06T10:02:48.988Z,10.95
2022-11-06T10:07:53.682Z,11.43
2022-11-06T10:13:07.875Z,12.35
2022-11-06T10:18:14.516Z,18.55
2022-11-06T10:23:21.693Z,12.25
2022-11-06T10:28:34.216Z,10.48
2022-11-06T10:33:45.029Z,9.43
2022-11-06T10:38:49.278Z,9.50
2022-11-06T10:43:53.825Z,9.02
2022-11-06T10:48:59.264Z,9.68
2022-11-06T10:54:15.567Z,8.75
2022-11-06T10:59:18.101Z,9.45
2022-11-06T11:04:19.427Z,8.48
2022-11-06T11:09:31.625Z,8.15
2022-11-06T11:14:32.429Z,8.40
2022-11-06T11:19:41.555Z,8.38
2022-11-06T11:25:00.931Z,8.68
2022-11-06T11:29:59.916Z,8.38
2022-11-06T11:34:59.827Z,8.75
2022-11-06T11:40:22.092Z,8.70
2022-11-06T11:45:22.790Z,8.68
2022-11-06T11:50:29.049Z,8.82
2022-11-06T11:55:31.405Z,8.80
2022-11-06T12:00:31.149Z,8.90
2022-11-06T12:05:36.825Z,10.48
2022-11-06T12:10:39.196Z,8.40
2022-11-06T12:15:45.539Z,7.72
2022-11-06T12:20:52.482Z,7.10
2022-11-06T12:26:01.237Z,7.65
2022-11-06T12:31:07.311Z,7.93
2022-11-06T12:36:09.829Z,7.93
2022-11-06T12:41:16.355Z,7.43
2022-11-06T12:46:39.778Z,8.30
2022-11-06T12:51:47.710Z,7.18
2022-11-06T12:56:56.385Z,10.10
2022-11-06T13:02:05.517Z,8.63
2022-11-06T13:07:53.885Z,10.27
2022-11-06T13:13:16.417Z,9.00
2022-11-06T13:18:21.215Z,9.25
2022-11-06T13:23:27.163Z,9.98
2022-11-06T13:28:39.003Z,8.32
2022-11-06T13:33:45.946Z,9.35
2022-11-06T13:38:52.646Z,9.25
2022-11-06T13:43:59.964Z,9.73
2022-11-06T13:49:08.216Z,8.80
2022-11-06T13:54:16.218Z,9.82
2022-11-06T13:59:34.315Z,9.23
2022-11-06T14:04:58.296Z,7.70
2022-11-06T14:09:57.521Z,9.52
2022-11-06T14:15:24.453Z,8.32
2022-11-06T14:20:32.802Z,7.97
2022-11-06T14:26:00.137Z,8.02
2022-11-06T14:31:21.448Z,9.32
2022-11-06T14:36:30.209Z,7.65
2022-11-06T14:41:54.710Z,7.88
2022-11-06T14:46:58.383Z,7.43
2022-11-06T14:52:02.966Z,9.00
2022-11-06T14:57:02.034Z,9.68
2022-11-06T15:02:13.372Z,8.88
2022-11-06T15:08:02.764Z,9.63
2022-11-06T15:13:12.779Z,9.57
2022-11-06T15:18:19.280Z,9.93
2022-11-06T15:23:23.680Z,8.88
2022-11-06T15:28:27.133Z,9.40
2022-11-06T15:33:32.353Z,10.43
2022-11-06T15:38:39.556Z,9.77
2022-11-06T15:43:38.765Z,9.27
2022-11-06T15:48:39.471Z,9.05
2022-11-06T15:53:41.442Z,12.27
2022-11-06T15:58:43.400Z,10.82
2022-11-06T16:08:48.306Z,10.70
2022-11-06T16:13:47.891Z,9.98
2022-11-06T16:18:49.509Z,10.73
2022-11-06T16:23:51.955Z,10.23
2022-11-06T16:33:58.323Z,10.82
2022-11-06T16:39:48.777Z,11.43
2022-11-06T16:44:50.047Z,10.48
2022-11-06T16:49:54.302Z,11.70
2022-11-06T16:54:56.406Z,11.27
2022-11-06T17:00:02.573Z,12.53
2022-11-06T17:05:12.081Z,10.85
2022-11-06T17:10:41.745Z,10.57
2022-11-06T17:15:40.779Z,10.40
2022-11-06T17:20:42.977Z,11.13
2022-11-06T17:25:42.009Z,9.93
2022-11-06T17:30:46.654Z,10.00
2022-11-06T17:35:59.624Z,10.18
2022-11-06T17:41:01.365Z,12.50
2022-11-06T17:46:10.254Z,10.05
2022-11-06T17:51:28.205Z,9.95
2022-11-06T17:56:37.788Z,9.90
2022-11-06T18:01:37.425Z,9.18
2022-11-06T18:06:53.543Z,10.80
2022-11-06T18:11:55.417Z,9.35
2022-11-06T18:16:54.858Z,9.43
2022-11-06T18:21:58.270Z,10.60
2022-11-06T18:26:58.850Z,9.90
2022-11-06T18:31:57.859Z,10.35
2022-11-06T18:36:58.000Z,9.93
2022-11-06T18:42:00.666Z,10.20
2022-11-06T18:46:59.691Z,15.55
2022-11-06T18:52:00.483Z,9.98
2022-11-06T18:56:59.263Z,8.88
2022-11-06T19:02:03.571Z,9.07
2022-11-06T19:07:07.192Z,9.50
2022-11-06T19:12:07.074Z,8.15
2022-11-06T19:17:06.174Z,7.88
2022-11-06T19:22:06.765Z,8.95
2022-11-06T19:27:09.399Z,7.13
2022-11-06T19:32:13.033Z,7.63
2022-11-06T19:37:14.966Z,8.23
2022-11-06T19:42:17.773Z,6.40
2022-11-06T19:47:17.388Z,7.00
2022-11-06T19:52:42.861Z,6.70
2022-11-06T19:58:09.384Z,7.20
2022-11-06T20:03:08.615Z,7.20
2022-11-06T20:08:09.304Z,5.80
2022-11-06T20:13:09.037Z,6.75
2022-11-06T20:18:07.814Z,6.40
2022-11-06T20:23:08.155Z,6.47
2022-11-06T20:28:07.095Z,6.68
2022-11-06T20:33:06.069Z,6.18
2022-11-06T20:38:05.138Z,5.53
2022-11-06T20:43:06.374Z,6.70
2022-11-06T20:48:05.877Z,4.93
2022-11-06T20:53:05.668Z,6.65
2022-11-06T20:58:12.974Z,5.35
2022-11-06T21:03:12.218Z,5.55
2022-11-06T21:08:11.368Z,4.88
2022-11-06T21:13:14.434Z,4.95
2022-11-06T21:18:13.605Z,5.53
2022-11-06T21:23:20.113Z,4.70
2022-11-06T21:28:30.135Z,4.88
2022-11-06T21:33:30.958Z,5.07
2022-11-06T21:38:29.956Z,5.18
2022-11-06T21:43:32.166Z,5.40
2022-11-06T21:48:50.116Z,5.10
2022-11-06T21:54:10.237Z,5.53
2022-11-06T21:59:12.885Z,5.70
2022-11-06T22:09:12.544Z,6.68
2022-11-06T22:14:16.377Z,4.57
2022-11-06T22:19:17.761Z,5.07
2022-11-06T22:24:17.262Z,5.68
2022-11-06T22:29:17.523Z,6.80
2022-11-06T22:34:16.353Z,5.25
2022-11-06T22:39:15.159Z,5.00
2022-11-06T22:44:13.932Z,4.68
2022-11-06T22:49:14.309Z,4.63
2022-11-06T22:54:13.670Z,5.10
2022-11-06T22:59:13.595Z,4.63
2022-11-06T23:04:16.313Z,4.45
2022-11-06T23:14:13.879Z,4.95
2022-11-06T23:19:17.130Z,3.53
2022-11-06T23:24:16.127Z,4.65
2022-11-06T23:29:14.892Z,3.72
2022-11-06T23:34:13.711Z,3.88
2022-11-06T23:39:13.934Z,3.85
2022-11-06T23:44:27.627Z,3.65
2022-11-06T23:49:26.879Z,4.00
2022-11-06T23:54:27.138Z,3.60
2022-11-06T23:59:25.996Z,3.58
